createdAt,value
2022-12-07T00:01:29.102Z,34.90
2022-12-07T00:04:14.257Z,35.27
2022-12-07T00:06:57.245Z,35.93
2022-12-07T00:09:42.731Z,35.53
2022-12-07T00:12:25.775Z,37.87
2022-12-07T00:15:09.806Z,37.17
2022-12-07T00:17:52.907Z,36.67
2022-12-07T00:20:35.951Z,37.53
2022-12-07T00:23:19.005Z,37.23
2022-12-07T00:26:08.005Z,37.37
2022-12-07T00:28:52.296Z,38.40
2022-12-07T00:31:39.979Z,39.63
2022-12-07T00:34:23.839Z,42.87
2022-12-07T00:37:06.897Z,43.67
2022-12-07T00:39:50.019Z,42.60
2022-12-07T00:42:34.542Z,43.90
2022-12-07T00:45:17.799Z,43.23
2022-12-07T00:48:00.799Z,39.80
2022-12-07T00:50:43.859Z,37.37
2022-12-07T00:53:28.423Z,38.37
2022-12-07T00:56:14.588Z,36.97
2022-12-07T00:59:00.537Z,37.00
2022-12-07T01:01:43.802Z,36.13
2022-12-07T01:04:26.914Z,37.03
2022-12-07T01:07:09.980Z,36.73
2022-12-07T01:09:52.968Z,35.03
2022-12-07T01:12:35.986Z,33.97
2022-12-07T01:15:20.628Z,33.73
2022-12-07T01:18:03.673Z,34.33
2022-12-07T01:20:46.740Z,33.80
2022-12-07T01:23:30.565Z,35.03
2022-12-07T01:26:15.466Z,33.80
2022-12-07T01:29:00.189Z,33.03
2022-12-07T01:31:44.742Z,33.50
2022-12-07T01:34:27.818Z,34.10
2022-12-07T01:37:10.811Z,33.40
2022-12-07T01:39:54.437Z,33.17
2022-12-07T01:42:37.506Z,32.40
2022-12-07T01:45:41.158Z,33.50
2022-12-07T01:48:29.888Z,34.40
2022-12-07T01:51:15.890Z,38.33
2022-12-07T01:53:59.008Z,38.07
2022-12-07T01:56:45.237Z,37.60
2022-12-07T01:59:28.705Z,36.77
2022-12-07T02:02:21.022Z,35.30
2022-12-07T02:05:07.836Z,32.00
2022-12-07T02:07:53.208Z,31.80
2022-12-07T02:10:36.362Z,31.90
2022-12-07T02:13:22.228Z,31.87
2022-12-07T02:16:15.699Z,33.07
2022-12-07T02:19:14.397Z,30.37
2022-12-07T02:22:08.432Z,30.73
2022-12-07T02:24:57.684Z,30.33
2022-12-07T02:27:48.225Z,31.10
2022-12-07T02:30:36.383Z,30.33
2022-12-07T02:33:26.838Z,29.63
2022-12-07T02:36:15.520Z,27.77
2022-12-07T02:39:03.308Z,28.07
2022-12-07T02:41:50.710Z,28.37
2022-12-07T02:44:35.196Z,27.80
2022-12-07T02:47:22.357Z,30.83
2022-12-07T02:50:07.118Z,29.43
2022-12-07T02:52:50.406Z,30.57
2022-12-07T02:55:40.852Z,27.63
2022-12-07T02:58:35.019Z,28.10
2022-12-07T03:01:29.629Z,28.80
2022-12-07T03:04:28.584Z,28.43
2022-12-07T03:07:20.809Z,31.27
2022-12-07T03:10:11.237Z,28.40
2022-12-07T03:13:04.450Z,29.17
2022-12-07T03:15:56.999Z,30.77
2022-12-07T03:18:44.058Z,30.50
2022-12-07T03:21:33.621Z,30.23
2022-12-07T03:24:19.726Z,31.13
2022-12-07T03:27:09.079Z,30.43
2022-12-07T03:29:57.104Z,31.67
2022-12-07T03:32:43.776Z,33.70
2022-12-07T03:35:31.053Z,35.67
2022-12-07T03:38:19.625Z,37.50
2022-12-07T03:41:08.753Z,35.87
2022-12-07T03:43:52.140Z,35.00
2022-12-07T03:46:45.232Z,33.20
2022-12-07T03:49:33.442Z,33.50
2022-12-07T03:52:25.037Z,34.77
2022-12-07T03:55:13.515Z,34.00
2022-12-07T03:58:01.414Z,34.63
2022-12-07T04:00:45.480Z,34.77
2022-12-07T04:03:28.495Z,34.87
2022-12-07T04:06:11.607Z,35.57
2022-12-07T04:08:54.701Z,34.47
2022-12-07T04:11:39.125Z,34.83
2022-12-07T04:14:22.164Z,34.97
2022-12-07T04:17:05.351Z,34.93
2022-12-07T04:19:48.370Z,37.40
2022-12-07T04:22:31.481Z,35.17
2022-12-07T04:25:14.699Z,36.70
2022-12-07T04:27:59.090Z,40.00
2022-12-07T04:30:42.142Z,47.53
2022-12-07T04:33:25.202Z,52.97
2022-12-07T04:36:08.837Z,52.97
2022-12-07T04:38:52.062Z,50.37
2022-12-07T04:41:35.524Z,49.13
2022-12-07T04:44:20.868Z,49.80
2022-12-07T04:47:04.216Z,48.80
2022-12-07T04:49:47.443Z,47.43
2022-12-07T04:52:30.659Z,48.87
2022-12-07T04:55:13.889Z,48.03
2022-12-07T04:57:57.009Z,43.27
2022-12-07T05:00:42.106Z,45.50
2022-12-07T05:03:25.158Z,44.50
2022-12-07T05:06:13.211Z,45.30
2022-12-07T05:08:56.982Z,46.43
2022-12-07T05:11:40.090Z,47.33
2022-12-07T05:14:23.545Z,48.77
2022-12-07T05:17:08.042Z,47.70
2022-12-07T05:19:51.114Z,47.47
2022-12-07T05:22:34.230Z,48.20
2022-12-07T05:25:17.455Z,46.17
2022-12-07T05:28:00.732Z,47.67
2022-12-07T05:30:43.804Z,46.00
2022-12-07T05:33:28.327Z,45.60
2022-12-07T05:36:11.453Z,46.00
2022-12-07T05:38:54.678Z,44.57
2022-12-07T05:41:54.914Z,46.07
2022-12-07T05:44:37.972Z,46.23
2022-12-07T05:47:21.026Z,45.63
2022-12-07T05:50:07.326Z,45.73
2022-12-07T05:52:50.374Z,51.67
2022-12-07T05:55:33.475Z,49.43
2022-12-07T05:58:34.048Z,52.37
2022-12-07T06:01:17.131Z,52.30
2022-12-07T06:04:00.205Z,56.90
2022-12-07T06:06:44.764Z,58.60
2022-12-07T06:09:29.643Z,55.33
2022-12-07T06:12:30.977Z,56.63
2022-12-07T06:15:14.556Z,59.90
2022-12-07T06:17:57.596Z,56.40
2022-12-07T06:20:40.717Z,58.00
2022-12-07T06:23:25.181Z,57.77
2022-12-07T06:26:08.286Z,55.37
2022-12-07T06:28:51.410Z,56.80
2022-12-07T06:31:34.828Z,59.23
2022-12-07T06:34:19.595Z,52.97
2022-12-07T06:37:02.676Z,50.07
2022-12-07T06:39:47.300Z,50.57
2022-12-07T06:42:30.306Z,47.23
2022-12-07T06:45:13.400Z,47.27
2022-12-07T06:47:56.505Z,44.03
2022-12-07T06:50:39.680Z,42.50
2022-12-07T06:53:22.722Z,40.33
2022-12-07T06:56:07.964Z,42.47
2022-12-07T06:58:51.547Z,40.33
2022-12-07T07:01:35.999Z,40.57
2022-12-07T07:04:19.131Z,41.70
2022-12-07T07:07:02.233Z,40.83
2022-12-07T07:09:45.299Z,38.20
2022-12-07T07:12:29.781Z,39.40
2022-12-07T07:15:13.280Z,38.70
2022-12-07T07:17:56.340Z,36.97
2022-12-07T07:20:39.979Z,37.67
2022-12-07T07:23:23.667Z,39.77
2022-12-07T07:26:06.813Z,39.00
2022-12-07T07:28:51.255Z,42.20
2022-12-07T07:31:36.477Z,40.70
2022-12-07T07:34:19.737Z,44.10
2022-12-07T07:37:02.915Z,45.03
2022-12-07T07:39:45.928Z,45.37
2022-12-07T07:42:28.993Z,47.10
2022-12-07T07:45:14.079Z,45.40
2022-12-07T07:47:57.156Z,43.73
2022-12-07T07:50:40.133Z,41.73
2022-12-07T07:53:23.239Z,38.87
2022-12-07T07:56:06.600Z,39.53
2022-12-07T07:58:53.557Z,37.57
2022-12-07T08:01:38.084Z,40.30
2022-12-07T08:04:21.205Z,41.33
2022-12-07T08:07:04.301Z,38.17
2022-12-07T08:09:47.305Z,38.70
2022-12-07T08:12:30.329Z,39.83
2022-12-07T08:15:13.352Z,38.90
2022-12-07T08:17:57.857Z,37.20
2022-12-07T08:20:42.506Z,35.43
2022-12-07T08:23:32.450Z,35.23
2022-12-07T08:26:20.523Z,33.93
2022-12-07T08:29:03.628Z,33.50
2022-12-07T08:31:46.665Z,32.70
2022-12-07T08:34:31.203Z,31.07
2022-12-07T08:37:14.193Z,31.23
2022-12-07T08:39:57.201Z,29.47
2022-12-07T08:42:41.440Z,30.00
2022-12-07T08:45:27.422Z,30.20
2022-12-07T08:48:15.136Z,29.77
2022-12-07T08:51:00.177Z,29.43
2022-12-07T08:53:44.933Z,32.73
2022-12-07T08:56:28.659Z,32.17
2022-12-07T08:59:13.126Z,31.80
2022-12-07T09:01:56.516Z,30.13
2022-12-07T09:04:39.620Z,29.93
2022-12-07T09:07:24.139Z,28.00
2022-12-07T09:10:08.318Z,29.73
2022-12-07T09:12:51.574Z,35.00
2022-12-07T09:15:34.919Z,35.40
2022-12-07T09:18:18.124Z,34.63
2022-12-07T09:21:01.190Z,34.10
2022-12-07T09:23:46.896Z,31.90
2022-12-07T09:26:29.999Z,31.53
2022-12-07T09:29:13.074Z,30.57
2022-12-07T09:31:56.081Z,31.40
2022-12-07T09:34:39.249Z,30.83
2022-12-07T09:37:22.343Z,31.70
2022-12-07T09:40:08.573Z,31.53
2022-12-07T09:42:54.616Z,30.83
2022-12-07T09:45:41.275Z,33.90
2022-12-07T09:48:31.546Z,32.23
2022-12-07T09:51:23.314Z,32.00
2022-12-07T09:54:07.582Z,33.63
2022-12-07T09:56:52.060Z,31.83
2022-12-07T09:59:36.728Z,33.50
2022-12-07T10:02:28.399Z,33.57
2022-12-07T10:05:22.093Z,34.50
2022-12-07T10:08:07.481Z,34.13
2022-12-07T10:10:53.715Z,37.30
2022-12-07T10:13:40.268Z,34.33
2022-12-07T10:16:40.488Z,35.03
2022-12-07T10:19:31.476Z,32.77
2022-12-07T10:22:17.383Z,36.70
2022-12-07T10:25:11.496Z,36.27
2022-12-07T10:28:03.543Z,39.57
2022-12-07T10:30:59.255Z,35.93
2022-12-07T10:33:52.409Z,38.90
2022-12-07T10:36:39.084Z,37.07
2022-12-07T10:39:23.628Z,36.87
2022-12-07T10:42:07.108Z,36.70
2022-12-07T10:44:51.296Z,37.63
2022-12-07T10:47:41.505Z,34.93
2022-12-07T10:50:54.815Z,33.20
2022-12-07T10:54:00.604Z,33.90
2022-12-07T10:57:18.622Z,32.50
2022-12-07T11:00:13.941Z,31.10
2022-12-07T11:03:18.631Z,30.20
2022-12-07T11:06:14.050Z,32.43
2022-12-07T11:09:18.390Z,30.80
2022-12-07T11:12:08.166Z,32.50
2022-12-07T11:14:58.524Z,33.47
2022-12-07T11:17:51.049Z,31.73
2022-12-07T11:20:47.694Z,28.43
2022-12-07T11:23:42.402Z,26.47
2022-12-07T11:26:49.034Z,24.63
2022-12-07T11:29:49.282Z,25.03
2022-12-07T11:32:51.445Z,25.63
2022-12-07T11:35:43.613Z,24.70
2022-12-07T11:38:38.052Z,25.90
2022-12-07T11:41:29.251Z,33.00
2022-12-07T11:44:33.530Z,28.20
2022-12-07T11:47:20.934Z,28.97
2022-12-07T11:50:19.598Z,29.13
2022-12-07T11:53:08.146Z,26.53
2022-12-07T11:55:57.430Z,26.70
2022-12-07T11:58:53.604Z,27.20
2022-12-07T12:01:50.172Z,25.33
2022-12-07T12:04:53.607Z,25.37
2022-12-07T12:10:55.661Z,25.40
2022-12-07T12:17:47.847Z,26.93
2022-12-07T12:20:35.207Z,28.03
2022-12-07T12:23:21.439Z,27.73
2022-12-07T12:26:09.302Z,31.13
2022-12-07T12:28:59.535Z,30.73
2022-12-07T12:31:43.677Z,28.80
2022-12-07T12:34:35.972Z,29.63
2022-12-07T12:37:47.267Z,32.37
2022-12-07T12:40:57.704Z,30.63
2022-12-07T12:43:55.022Z,28.63
2022-12-07T12:46:56.432Z,29.67
2022-12-07T12:49:44.201Z,27.97
2022-12-07T12:52:54.150Z,27.00
2022-12-07T12:56:09.472Z,24.93
2022-12-07T12:59:35.429Z,27.73
2022-12-07T13:02:24.338Z,25.33
2022-12-07T13:05:20.501Z,25.27
2022-12-07T13:08:05.131Z,25.30
2022-12-07T13:10:48.900Z,26.17
2022-12-07T13:13:35.017Z,24.80
2022-12-07T13:16:43.473Z,25.63
2022-12-07T13:20:03.306Z,22.23
2022-12-07T13:22:51.539Z,22.63
2022-12-07T13:25:43.615Z,25.37
2022-12-07T13:28:34.520Z,26.37
2022-12-07T13:31:36.229Z,24.47
2022-12-07T13:34:35.911Z,23.30
2022-12-07T13:37:27.190Z,25.17
2022-12-07T13:40:21.018Z,24.87
2022-12-07T13:43:07.330Z,25.33
2022-12-07T13:45:59.159Z,23.20
2022-12-07T13:48:47.592Z,25.67
2022-12-07T13:51:39.042Z,24.30
2022-12-07T13:54:23.409Z,24.10
2022-12-07T13:57:06.591Z,29.90
2022-12-07T13:59:50.701Z,29.43
2022-12-07T14:02:38.778Z,27.17
2022-12-07T14:05:27.553Z,25.33
2022-12-07T14:08:25.859Z,26.90
2022-12-07T14:11:19.087Z,25.40
2022-12-07T14:14:03.804Z,26.03
2022-12-07T14:16:58.843Z,27.30
2022-12-07T14:19:51.634Z,25.93
2022-12-07T14:22:36.987Z,26.50
2022-12-07T14:25:23.289Z,26.33
2022-12-07T14:28:06.332Z,25.83
2022-12-07T14:30:49.541Z,26.50
2022-12-07T14:33:32.684Z,25.80
2022-12-07T14:36:16.666Z,25.80
2022-12-07T14:39:00.535Z,28.53
2022-12-07T14:41:54.099Z,26.30
2022-12-07T14:44:37.180Z,29.30
2022-12-07T14:50:24.370Z,36.23
2022-12-07T14:56:07.384Z,31.37
2022-12-07T14:58:51.854Z,31.47
2022-12-07T15:01:34.879Z,33.80
2022-12-07T15:04:18.161Z,36.07
2022-12-07T15:07:03.008Z,48.07
2022-12-07T15:09:46.199Z,46.30
2022-12-07T15:12:29.229Z,46.50
2022-12-07T15:15:13.725Z,39.73
2022-12-07T15:17:56.987Z,36.60
2022-12-07T15:20:40.286Z,35.27
2022-12-07T15:23:23.441Z,39.77
2022-12-07T15:26:06.953Z,41.93
2022-12-07T15:28:50.146Z,41.77
2022-12-07T15:34:40.598Z,53.63
2022-12-07T15:37:23.946Z,44.43
2022-12-07T15:40:08.739Z,43.03
2022-12-07T15:42:51.743Z,46.53
2022-12-07T15:45:33.864Z,62.83
2022-12-07T15:48:27.812Z,59.33
2022-12-07T15:51:11.620Z,63.93
2022-12-07T15:53:54.663Z,54.20
2022-12-07T15:56:37.776Z,43.27
2022-12-07T15:59:21.056Z,44.07
2022-12-07T16:02:04.142Z,51.10
2022-12-07T16:04:48.704Z,53.70
2022-12-07T16:07:31.811Z,47.23
2022-12-07T16:10:14.967Z,49.13
2022-12-07T16:12:58.080Z,44.03
2022-12-07T16:15:41.248Z,40.87
2022-12-07T16:18:24.429Z,37.30
2022-12-07T16:21:09.256Z,36.90
2022-12-07T16:23:52.322Z,43.07
2022-12-07T16:26:35.497Z,43.57
2022-12-07T16:29:19.659Z,43.40
2022-12-07T16:32:02.764Z,45.10
2022-12-07T16:34:45.775Z,43.57
2022-12-07T16:37:30.252Z,37.60
2022-12-07T16:40:14.429Z,33.43
2022-12-07T16:42:57.928Z,36.10
2022-12-07T16:45:41.196Z,40.60
2022-12-07T16:48:24.655Z,41.60
2022-12-07T16:51:09.766Z,37.07
2022-12-07T16:53:55.158Z,40.37
2022-12-07T16:56:38.203Z,38.73
2022-12-07T16:59:21.255Z,33.70
2022-12-07T17:02:04.907Z,31.80
2022-12-07T17:04:48.023Z,34.30
2022-12-07T17:07:31.151Z,37.63
2022-12-07T17:10:15.584Z,45.43
2022-12-07T17:12:58.739Z,51.37
2022-12-07T17:15:43.350Z,49.97
2022-12-07T17:18:29.774Z,50.77
2022-12-07T17:21:12.881Z,50.37
2022-12-07T17:23:56.014Z,52.07
2022-12-07T17:26:42.036Z,57.63
2022-12-07T17:29:25.076Z,59.60
2022-12-07T17:32:08.231Z,69.77
2022-12-07T17:34:51.298Z,71.77
2022-12-07T17:37:34.587Z,79.77
2022-12-07T17:40:17.796Z,70.47
2022-12-07T17:43:02.262Z,60.17
2022-12-07T17:45:45.453Z,60.17
2022-12-07T17:48:28.614Z,61.30
2022-12-07T17:51:28.863Z,63.33
2022-12-07T17:54:12.775Z,67.10
2022-12-07T17:56:55.875Z,67.83
2022-12-07T17:59:40.589Z,73.37
2022-12-07T18:02:23.793Z,78.17
2022-12-07T18:05:07.924Z,74.83
2022-12-07T18:07:51.143Z,77.33
2022-12-07T18:10:34.292Z,69.77
2022-12-07T18:13:34.950Z,71.50
2022-12-07T18:16:23.036Z,59.27
2022-12-07T18:19:09.201Z,57.53
2022-12-07T18:21:52.379Z,54.57
2022-12-07T18:24:37.300Z,52.43
2022-12-07T18:27:20.548Z,50.07
2022-12-07T18:30:03.656Z,48.90
2022-12-07T18:32:48.104Z,49.97
2022-12-07T18:35:31.717Z,51.53
2022-12-07T18:38:14.894Z,49.63
2022-12-07T18:40:58.268Z,51.43
2022-12-07T18:43:41.774Z,50.30
2022-12-07T18:46:24.846Z,46.87
2022-12-07T18:49:10.928Z,48.57
2022-12-07T18:51:54.029Z,47.67
2022-12-07T18:54:37.179Z,44.57
2022-12-07T18:57:20.217Z,47.00
2022-12-07T19:00:04.340Z,45.23
2022-12-07T19:02:47.650Z,42.93
2022-12-07T19:05:32.231Z,40.67
2022-12-07T19:08:15.555Z,40.50
2022-12-07T19:11:23.528Z,39.97
2022-12-07T19:14:07.377Z,40.43
2022-12-07T19:16:52.223Z,38.50
2022-12-07T19:19:37.818Z,36.10
2022-12-07T19:22:24.335Z,37.13
2022-12-07T19:25:08.080Z,41.83
2022-12-07T19:27:51.521Z,40.00
2022-12-07T19:30:34.712Z,38.67
2022-12-07T19:33:17.777Z,36.50
2022-12-07T19:36:00.829Z,33.87
2022-12-07T19:38:51.722Z,33.07
2022-12-07T19:41:39.356Z,34.20
2022-12-07T19:44:25.588Z,33.37
2022-12-07T19:47:09.461Z,36.90
2022-12-07T19:49:53.506Z,38.40
2022-12-07T19:52:37.049Z,41.53
2022-12-07T19:55:22.237Z,40.20
2022-12-07T19:58:05.928Z,41.87
2022-12-07T20:00:49.116Z,41.47
2022-12-07T20:03:32.597Z,38.10
2022-12-07T20:06:18.723Z,37.73
2022-12-07T20:09:02.421Z,40.30
2022-12-07T20:12:04.549Z,38.43
2022-12-07T20:14:47.839Z,37.80
2022-12-07T20:17:31.031Z,38.77
2022-12-07T20:20:14.480Z,37.83
2022-12-07T20:22:57.680Z,39.10
2022-12-07T20:25:41.019Z,38.60
2022-12-07T20:28:25.870Z,39.30
2022-12-07T20:31:09.041Z,29.60
2022-12-07T20:33:53.899Z,27.37
2022-12-07T20:36:37.763Z,28.87
2022-12-07T20:39:21.037Z,32.93
2022-12-07T20:42:21.459Z,33.10
2022-12-07T20:45:09.592Z,32.90
2022-12-07T20:47:53.749Z,33.00
2022-12-07T20:50:42.004Z,34.27
2022-12-07T20:53:25.487Z,34.67
2022-12-07T20:56:09.823Z,41.37
2022-12-07T20:58:53.254Z,40.90
2022-12-07T21:01:38.408Z,42.87
2022-12-07T21:04:21.662Z,41.77
2022-12-07T21:07:05.002Z,44.00
2022-12-07T21:09:48.115Z,46.00
2022-12-07T21:12:31.246Z,43.83
2022-12-07T21:15:14.531Z,36.27
2022-12-07T21:18:04.246Z,36.03
2022-12-07T21:20:50.295Z,30.83
2022-12-07T21:23:35.231Z,42.70
2022-12-07T21:26:20.616Z,44.53
2022-12-07T21:29:04.715Z,46.90
2022-12-07T21:31:48.319Z,43.53
2022-12-07T21:34:32.979Z,44.13
2022-12-07T21:37:16.278Z,42.23
2022-12-07T21:39:59.630Z,43.33
2022-12-07T21:42:44.917Z,42.10
2022-12-07T21:45:28.075Z,40.73
2022-12-07T21:48:11.477Z,36.27
2022-12-07T21:50:56.075Z,33.93
2022-12-07T21:53:42.098Z,36.63
2022-12-07T21:56:27.765Z,35.77
2022-12-07T21:59:14.474Z,33.50
2022-12-07T22:01:57.682Z,32.90
2022-12-07T22:04:40.775Z,31.93
2022-12-07T22:07:25.533Z,32.23
2022-12-07T22:10:10.289Z,33.30
2022-12-07T22:12:55.447Z,32.63
2022-12-07T22:15:41.593Z,30.13
2022-12-07T22:18:24.646Z,30.20
2022-12-07T22:21:07.988Z,29.33
2022-12-07T22:23:53.911Z,26.53
2022-12-07T22:26:37.030Z,26.93
2022-12-07T22:29:21.065Z,26.70
2022-12-07T22:32:24.690Z,29.00
2022-12-07T22:35:07.767Z,26.43
2022-12-07T22:37:50.836Z,26.57
2022-12-07T22:40:35.345Z,26.20
2022-12-07T22:43:19.035Z,25.23
2022-12-07T22:46:02.524Z,26.37
2022-12-07T22:48:46.068Z,26.17
2022-12-07T22:51:31.099Z,24.73
2022-12-07T22:54:16.926Z,25.63
2022-12-07T22:57:01.358Z,23.70
2022-12-07T22:59:44.454Z,26.07
2022-12-07T23:02:27.880Z,25.53
2022-12-07T23:05:11.634Z,25.03
2022-12-07T23:07:54.782Z,24.00
2022-12-07T23:10:38.043Z,25.53
2022-12-07T23:13:39.528Z,27.47
2022-12-07T23:16:25.461Z,25.83
2022-12-07T23:19:09.052Z,25.50
2022-12-07T23:21:52.385Z,25.37
2022-12-07T23:24:35.759Z,25.27
2022-12-07T23:27:20.894Z,25.57
2022-12-07T23:30:06.399Z,28.63
2022-12-07T23:32:49.648Z,27.57
2022-12-07T23:35:32.943Z,30.03
2022-12-07T23:38:16.000Z,29.40
2022-12-07T23:40:59.106Z,30.27
2022-12-07T23:43:43.512Z,35.77
2022-12-07T23:46:31.505Z,37.00
2022-12-07T23:49:14.640Z,34.50
2022-12-07T23:51:58.478Z,34.43
2022-12-07T23:54:42.011Z,34.30
2022-12-07T23:57:25.103Z,33.37
